sensor_id;sensor_type;location;lat;lon;timestamp;P1;durP1;ratioP1;P2;durP2;ratioP2
12129;SDS011;6128;59.340;18.040;2023-12-20T00:02:19;4.93;;;1.30;;
12129;SDS011;6128;59.340;18.040;2023-12-20T00:04:47;8.57;;;1.90;;
12129;SDS011;6128;59.340;18.040;2023-12-20T00:07:15;4.33;;;1.63;;
12129;SDS011;6128;59.340;18.040;2023-12-20T00:09:42;6.50;;;1.90;;
12129;SDS011;6128;59.340;18.040;2023-12-20T00:12:09;4.20;;;1.47;;
12129;SDS011;6128;59.340;18.040;2023-12-20T00:14:36;6.87;;;1.73;;
12129;SDS011;6128;59.340;18.040;2023-12-20T00:17:04;4.57;;;1.23;;
12129;SDS011;6128;59.340;18.040;2023-12-20T00:19:31;6.03;;;1.40;;
12129;SDS011;6128;59.340;18.040;2023-12-20T00:22:00;8.43;;;2.03;;
12129;SDS011;6128;59.340;18.040;2023-12-20T00:24:27;8.97;;;1.70;;
12129;SDS011;6128;59.340;18.040;2023-12-20T00:26:54;5.07;;;1.30;;
12129;SDS011;6128;59.340;18.040;2023-12-20T00:29:21;5.30;;;1.93;;
12129;SDS011;6128;59.340;18.040;2023-12-20T00:31:48;5.23;;;1.43;;
12129;SDS011;6128;59.340;18.040;2023-12-20T00:34:15;7.37;;;1.50;;
12129;SDS011;6128;59.340;18.040;2023-12-20T00:36:42;6.57;;;1.40;;
12129;SDS011;6128;59.340;18.040;2023-12-20T00:39:11;5.10;;;1.50;;
12129;SDS011;6128;59.340;18.040;2023-12-20T00:41:38;7.70;;;1.77;;
12129;SDS011;6128;59.340;18.040;2023-12-20T00:44:07;7.10;;;1.53;;
12129;SDS011;6128;59.340;18.040;2023-12-20T00:46:34;6.10;;;1.33;;
12129;SDS011;6128;59.340;18.040;2023-12-20T00:49:04;7.47;;;1.70;;
12129;SDS011;6128;59.340;18.040;2023-12-20T00:51:34;6.30;;;1.70;;
12129;SDS011;6128;59.340;18.040;2023-12-20T00:54:02;8.90;;;2.00;;
12129;SDS011;6128;59.340;18.040;2023-12-20T00:56:30;6.60;;;1.90;;
12129;SDS011;6128;59.340;18.040;2023-12-20T00:59:01;8.17;;;1.90;;
12129;SDS011;6128;59.340;18.040;2023-12-20T01:01:28;9.77;;;2.43;;
12129;SDS011;6128;59.340;18.040;2023-12-20T01:03:55;8.90;;;2.27;;
12129;SDS011;6128;59.340;18.040;2023-12-20T01:06:22;8.00;;;1.80;;
12129;SDS011;6128;59.340;18.040;2023-12-20T01:08:49;7.87;;;2.13;;
12129;SDS011;6128;59.340;18.040;2023-12-20T01:11:16;11.23;;;2.00;;
12129;SDS011;6128;59.340;18.040;2023-12-20T01:13:45;7.60;;;1.70;;
12129;SDS011;6128;59.340;18.040;2023-12-20T01:16:12;7.60;;;1.77;;
12129;SDS011;6128;59.340;18.040;2023-12-20T01:18:39;5.80;;;1.93;;
12129;SDS011;6128;59.340;18.040;2023-12-20T01:21:06;8.10;;;1.87;;
12129;SDS011;6128;59.340;18.040;2023-12-20T01:23:33;6.83;;;1.40;;
12129;SDS011;6128;59.340;18.040;2023-12-20T01:26:00;6.57;;;1.97;;
12129;SDS011;6128;59.340;18.040;2023-12-20T01:28:27;10.23;;;3.03;;
12129;SDS011;6128;59.340;18.040;2023-12-20T01:30:56;5.93;;;1.80;;
12129;SDS011;6128;59.340;18.040;2023-12-20T01:33:24;6.50;;;1.60;;
12129;SDS011;6128;59.340;18.040;2023-12-20T01:35:51;8.83;;;1.97;;
12129;SDS011;6128;59.340;18.040;2023-12-20T01:38:18;9.00;;;2.07;;
12129;SDS011;6128;59.340;18.040;2023-12-20T01:40:45;8.40;;;2.33;;
12129;SDS011;6128;59.340;18.040;2023-12-20T01:43:12;7.70;;;1.73;;
12129;SDS011;6128;59.340;18.040;2023-12-20T01:45:39;8.17;;;2.17;;
12129;SDS011;6128;59.340;18.040;2023-12-20T01:48:08;6.93;;;1.80;;
12129;SDS011;6128;59.340;18.040;2023-12-20T01:50:36;6.27;;;1.80;;
12129;SDS011;6128;59.340;18.040;2023-12-20T01:53:04;7.10;;;1.60;;
12129;SDS011;6128;59.340;18.040;2023-12-20T01:55:34;5.03;;;1.87;;
12129;SDS011;6128;59.340;18.040;2023-12-20T01:58:05;4.10;;;1.43;;
12129;SDS011;6128;59.340;18.040;2023-12-20T02:00:32;6.17;;;1.57;;
12129;SDS011;6128;59.340;18.040;2023-12-20T02:03:00;7.53;;;1.67;;
12129;SDS011;6128;59.340;18.040;2023-12-20T02:05:29;7.70;;;1.90;;
12129;SDS011;6128;59.340;18.040;2023-12-20T02:07:56;6.13;;;1.83;;
12129;SDS011;6128;59.340;18.040;2023-12-20T02:10:23;8.60;;;1.37;;
12129;SDS011;6128;59.340;18.040;2023-12-20T02:12:51;8.20;;;2.13;;
12129;SDS011;6128;59.340;18.040;2023-12-20T02:15:19;6.50;;;1.70;;
12129;SDS011;6128;59.340;18.040;2023-12-20T02:17:46;9.60;;;1.47;;
12129;SDS011;6128;59.340;18.040;2023-12-20T02:20:14;9.17;;;1.63;;
12129;SDS011;6128;59.340;18.040;2023-12-20T02:22:43;5.27;;;1.30;;
12129;SDS011;6128;59.340;18.040;2023-12-20T02:25:10;5.73;;;1.93;;
12129;SDS011;6128;59.340;18.040;2023-12-20T02:27:37;6.50;;;1.50;;
12129;SDS011;6128;59.340;18.040;2023-12-20T02:30:06;7.53;;;1.90;;
12129;SDS011;6128;59.340;18.040;2023-12-20T02:32:33;8.50;;;1.60;;
12129;SDS011;6128;59.340;18.040;2023-12-20T02:35:00;7.67;;;1.67;;
12129;SDS011;6128;59.340;18.040;2023-12-20T02:37:27;5.67;;;1.40;;
12129;SDS011;6128;59.340;18.040;2023-12-20T02:39:56;6.60;;;1.80;;
12129;SDS011;6128;59.340;18.040;2023-12-20T02:42:23;7.57;;;1.57;;
12129;SDS011;6128;59.340;18.040;2023-12-20T02:44:50;8.07;;;1.80;;
12129;SDS011;6128;59.340;18.040;2023-12-20T02:47:17;8.07;;;1.50;;
12129;SDS011;6128;59.340;18.040;2023-12-20T02:49:44;5.27;;;1.90;;
12129;SDS011;6128;59.340;18.040;2023-12-20T02:52:11;6.30;;;1.63;;
12129;SDS011;6128;59.340;18.040;2023-12-20T02:54:38;9.13;;;1.17;;
12129;SDS011;6128;59.340;18.040;2023-12-20T02:57:06;5.73;;;1.53;;
12129;SDS011;6128;59.340;18.040;2023-12-20T02:59:34;5.07;;;1.33;;
12129;SDS011;6128;59.340;18.040;2023-12-20T03:02:01;6.87;;;1.83;;
12129;SDS011;6128;59.340;18.040;2023-12-20T03:04:31;5.73;;;1.37;;
12129;SDS011;6128;59.340;18.040;2023-12-20T03:06:58;5.03;;;1.63;;
12129;SDS011;6128;59.340;18.040;2023-12-20T03:09:25;7.37;;;1.50;;
12129;SDS011;6128;59.340;18.040;2023-12-20T03:11:52;4.47;;;1.40;;
12129;SDS011;6128;59.340;18.040;2023-12-20T03:14:20;5.70;;;1.40;;
12129;SDS011;6128;59.340;18.040;2023-12-20T03:16:48;6.63;;;1.43;;
12129;SDS011;6128;59.340;18.040;2023-12-20T03:19:17;5.87;;;1.40;;
12129;SDS011;6128;59.340;18.040;2023-12-20T03:21:45;6.57;;;2.00;;
12129;SDS011;6128;59.340;18.040;2023-12-20T03:24:12;4.83;;;1.33;;
12129;SDS011;6128;59.340;18.040;2023-12-20T03:26:39;6.90;;;1.60;;
12129;SDS011;6128;59.340;18.040;2023-12-20T03:29:06;8.10;;;1.60;;
12129;SDS011;6128;59.340;18.040;2023-12-20T03:31:34;5.93;;;1.60;;
12129;SDS011;6128;59.340;18.040;2023-12-20T03:34:02;4.47;;;1.10;;
12129;SDS011;6128;59.340;18.040;2023-12-20T03:36:29;5.87;;;1.77;;
12129;SDS011;6128;59.340;18.040;2023-12-20T03:38:56;6.87;;;1.30;;
12129;SDS011;6128;59.340;18.040;2023-12-20T03:41:23;6.83;;;1.53;;
12129;SDS011;6128;59.340;18.040;2023-12-20T03:43:50;5.50;;;1.30;;
12129;SDS011;6128;59.340;18.040;2023-12-20T03:46:17;6.00;;;1.73;;
12129;SDS011;6128;59.340;18.040;2023-12-20T03:48:45;3.90;;;1.20;;
12129;SDS011;6128;59.340;18.040;2023-12-20T03:51:12;4.47;;;1.20;;
12129;SDS011;6128;59.340;18.040;2023-12-20T03:53:39;5.90;;;1.40;;
12129;SDS011;6128;59.340;18.040;2023-12-20T03:56:06;6.37;;;1.87;;
12129;SDS011;6128;59.340;18.040;2023-12-20T03:58:33;3.70;;;1.37;;
12129;SDS011;6128;59.340;18.040;2023-12-20T04:01:00;6.50;;;1.40;;
12129;SDS011;6128;59.340;18.040;2023-12-20T04:03:27;3.63;;;1.10;;
12129;SDS011;6128;59.340;18.040;2023-12-20T04:05:56;4.83;;;1.53;;
12129;SDS011;6128;59.340;18.040;2023-12-20T04:08:23;5.70;;;1.70;;
12129;SDS011;6128;59.340;18.040;2023-12-20T04:10:50;6.37;;;1.20;;
12129;SDS011;6128;59.340;18.040;2023-12-20T04:13:17;4.40;;;1.50;;
12129;SDS011;6128;59.340;18.040;2023-12-20T04:15:44;5.70;;;1.30;;
12129;SDS011;6128;59.340;18.040;2023-12-20T04:18:11;6.30;;;1.40;;
12129;SDS011;6128;59.340;18.040;2023-12-20T04:20:38;3.23;;;1.57;;
12129;SDS011;6128;59.340;18.040;2023-12-20T04:23:06;4.57;;;1.37;;
12129;SDS011;6128;59.340;18.040;2023-12-20T04:25:33;5.13;;;1.67;;
12129;SDS011;6128;59.340;18.040;2023-12-20T04:28:01;6.63;;;1.33;;
12129;SDS011;6128;59.340;18.040;2023-12-20T04:30:28;3.73;;;1.33;;
12129;SDS011;6128;59.340;18.040;2023-12-20T04:32:55;5.00;;;1.17;;
12129;SDS011;6128;59.340;18.040;2023-12-20T04:35:23;2.07;;;0.97;;
12129;SDS011;6128;59.340;18.040;2023-12-20T04:37:50;3.50;;;1.00;;
12129;SDS011;6128;59.340;18.040;2023-12-20T04:40:18;3.53;;;1.20;;
12129;SDS011;6128;59.340;18.040;2023-12-20T04:42:45;3.47;;;1.33;;
12129;SDS011;6128;59.340;18.040;2023-12-20T04:45:13;5.73;;;1.20;;
12129;SDS011;6128;59.340;18.040;2023-12-20T04:47:41;4.60;;;1.40;;
12129;SDS011;6128;59.340;18.040;2023-12-20T04:50:08;3.77;;;1.17;;
12129;SDS011;6128;59.340;18.040;2023-12-20T04:52:38;3.37;;;1.53;;
12129;SDS011;6128;59.340;18.040;2023-12-20T04:55:05;4.37;;;1.23;;
12129;SDS011;6128;59.340;18.040;2023-12-20T04:57:36;4.33;;;1.20;;
12129;SDS011;6128;59.340;18.040;2023-12-20T05:00:03;3.87;;;1.17;;
12129;SDS011;6128;59.340;18.040;2023-12-20T05:02:33;5.97;;;1.70;;
12129;SDS011;6128;59.340;18.040;2023-12-20T05:05:00;3.63;;;1.43;;
12129;SDS011;6128;59.340;18.040;2023-12-20T05:07:28;5.47;;;1.70;;
12129;SDS011;6128;59.340;18.040;2023-12-20T05:09:55;5.37;;;1.70;;
12129;SDS011;6128;59.340;18.040;2023-12-20T05:12:23;3.80;;;1.20;;
12129;SDS011;6128;59.340;18.040;2023-12-20T05:14:52;3.93;;;1.20;;
12129;SDS011;6128;59.340;18.040;2023-12-20T05:17:19;4.17;;;1.27;;
12129;SDS011;6128;59.340;18.040;2023-12-20T05:19:46;4.27;;;1.40;;
12129;SDS011;6128;59.340;18.040;2023-12-20T05:22:13;6.07;;;1.57;;
12129;SDS011;6128;59.340;18.040;2023-12-20T05:24:40;5.60;;;1.57;;
12129;SDS011;6128;59.340;18.040;2023-12-20T05:27:07;5.80;;;1.63;;
12129;SDS011;6128;59.340;18.040;2023-12-20T05:29:35;3.40;;;1.30;;
12129;SDS011;6128;59.340;18.040;2023-12-20T05:32:03;3.80;;;1.20;;
12129;SDS011;6128;59.340;18.040;2023-12-20T05:34:31;3.93;;;1.47;;
12129;SDS011;6128;59.340;18.040;2023-12-20T05:36:58;4.20;;;1.20;;
12129;SDS011;6128;59.340;18.040;2023-12-20T05:39:26;2.23;;;1.10;;
12129;SDS011;6128;59.340;18.040;2023-12-20T05:41:54;3.77;;;1.47;;
12129;SDS011;6128;59.340;18.040;2023-12-20T05:44:21;4.53;;;0.93;;
12129;SDS011;6128;59.340;18.040;2023-12-20T05:46:48;1.97;;;1.37;;
12129;SDS011;6128;59.340;18.040;2023-12-20T05:49:16;3.17;;;1.40;;
12129;SDS011;6128;59.340;18.040;2023-12-20T05:51:43;4.07;;;1.50;;
12129;SDS011;6128;59.340;18.040;2023-12-20T05:54:11;5.93;;;2.37;;
12129;SDS011;6128;59.340;18.040;2023-12-20T05:56:38;5.07;;;1.10;;
12129;SDS011;6128;59.340;18.040;2023-12-20T05:59:05;3.03;;;1.27;;
12129;SDS011;6128;59.340;18.040;2023-12-20T06:01:33;2.73;;;1.57;;
12129;SDS011;6128;59.340;18.040;2023-12-20T06:04:00;6.50;;;2.03;;
12129;SDS011;6128;59.340;18.040;2023-12-20T06:06:29;2.63;;;1.30;;
12129;SDS011;6128;59.340;18.040;2023-12-20T06:08:56;3.70;;;1.30;;
12129;SDS011;6128;59.340;18.040;2023-12-20T06:11:24;4.70;;;1.93;;
12129;SDS011;6128;59.340;18.040;2023-12-20T06:13:50;3.97;;;1.70;;
12129;SDS011;6128;59.340;18.040;2023-12-20T06:16:18;3.90;;;1.67;;
12129;SDS011;6128;59.340;18.040;2023-12-20T06:18:46;8.63;;;2.03;;
12129;SDS011;6128;59.340;18.040;2023-12-20T06:21:16;3.97;;;1.47;;
12129;SDS011;6128;59.340;18.040;2023-12-20T06:23:44;4.07;;;1.90;;
12129;SDS011;6128;59.340;18.040;2023-12-20T06:26:11;5.53;;;1.50;;
12129;SDS011;6128;59.340;18.040;2023-12-20T06:28:38;8.07;;;2.07;;
12129;SDS011;6128;59.340;18.040;2023-12-20T06:31:05;3.23;;;1.70;;
12129;SDS011;6128;59.340;18.040;2023-12-20T06:33:32;8.83;;;1.53;;
12129;SDS011;6128;59.340;18.040;2023-12-20T06:35:59;11.40;;;1.80;;
12129;SDS011;6128;59.340;18.040;2023-12-20T06:38:27;5.03;;;1.63;;
12129;SDS011;6128;59.340;18.040;2023-12-20T06:40:55;9.67;;;1.97;;
12129;SDS011;6128;59.340;18.040;2023-12-20T06:43:23;3.80;;;1.97;;
12129;SDS011;6128;59.340;18.040;2023-12-20T06:45:50;5.97;;;2.10;;
12129;SDS011;6128;59.340;18.040;2023-12-20T06:48:17;11.20;;;2.30;;
12129;SDS011;6128;59.340;18.040;2023-12-20T06:50:45;7.93;;;2.10;;
12129;SDS011;6128;59.340;18.040;2023-12-20T06:53:12;6.00;;;2.10;;
12129;SDS011;6128;59.340;18.040;2023-12-20T06:55:40;16.30;;;3.10;;
12129;SDS011;6128;59.340;18.040;2023-12-20T06:58:09;11.00;;;2.93;;
12129;SDS011;6128;59.340;18.040;2023-12-20T07:00:36;6.50;;;2.47;;
12129;SDS011;6128;59.340;18.040;2023-12-20T07:03:03;13.03;;;3.90;;
12129;SDS011;6128;59.340;18.040;2023-12-20T07:05:30;7.83;;;3.23;;
12129;SDS011;6128;59.340;18.040;2023-12-20T07:07:58;9.40;;;3.87;;
12129;SDS011;6128;59.340;18.040;2023-12-20T07:10:25;10.33;;;4.47;;
12129;SDS011;6128;59.340;18.040;2023-12-20T07:12:52;7.93;;;4.63;;
12129;SDS011;6128;59.340;18.040;2023-12-20T07:15:21;7.53;;;4.47;;
12129;SDS011;6128;59.340;18.040;2023-12-20T07:17:48;6.57;;;4.07;;
12129;SDS011;6128;59.340;18.040;2023-12-20T07:20:15;5.60;;;3.27;;
12129;SDS011;6128;59.340;18.040;2023-12-20T07:22:43;9.83;;;3.60;;
12129;SDS011;6128;59.340;18.040;2023-12-20T07:25:10;6.30;;;3.60;;
12129;SDS011;6128;59.340;18.040;2023-12-20T07:27:37;8.97;;;4.47;;
12129;SDS011;6128;59.340;18.040;2023-12-20T07:30:05;8.30;;;4.30;;
12129;SDS011;6128;59.340;18.040;2023-12-20T07:32:34;8.93;;;5.33;;
12129;SDS011;6128;59.340;18.040;2023-12-20T07:35:01;9.47;;;4.37;;
12129;SDS011;6128;59.340;18.040;2023-12-20T07:37:29;9.93;;;5.50;;
12129;SDS011;6128;59.340;18.040;2023-12-20T07:39:56;12.80;;;5.80;;
12129;SDS011;6128;59.340;18.040;2023-12-20T07:42:23;11.10;;;5.43;;
12129;SDS011;6128;59.340;18.040;2023-12-20T07:44:50;11.30;;;5.13;;
12129;SDS011;6128;59.340;18.040;2023-12-20T07:47:17;12.43;;;5.43;;
12129;SDS011;6128;59.340;18.040;2023-12-20T07:49:48;8.97;;;4.97;;
12129;SDS011;6128;59.340;18.040;2023-12-20T07:52:16;8.63;;;4.73;;
12129;SDS011;6128;59.340;18.040;2023-12-20T07:54:43;7.50;;;4.03;;
12129;SDS011;6128;59.340;18.040;2023-12-20T07:57:10;7.60;;;3.93;;
12129;SDS011;6128;59.340;18.040;2023-12-20T07:59:37;8.40;;;4.10;;
12129;SDS011;6128;59.340;18.040;2023-12-20T08:02:05;6.10;;;3.23;;
12129;SDS011;6128;59.340;18.040;2023-12-20T08:04:32;6.07;;;3.43;;
12129;SDS011;6128;59.340;18.040;2023-12-20T08:07:01;8.87;;;3.40;;
12129;SDS011;6128;59.340;18.040;2023-12-20T08:09:28;7.23;;;4.20;;
12129;SDS011;6128;59.340;18.040;2023-12-20T08:11:55;8.53;;;3.27;;
12129;SDS011;6128;59.340;18.040;2023-12-20T08:14:24;6.70;;;3.97;;
12129;SDS011;6128;59.340;18.040;2023-12-20T08:16:52;7.23;;;3.60;;
12129;SDS011;6128;59.340;18.040;2023-12-20T08:19:19;5.47;;;2.87;;
12129;SDS011;6128;59.340;18.040;2023-12-20T08:21:47;7.43;;;3.33;;
12129;SDS011;6128;59.340;18.040;2023-12-20T08:24:15;5.47;;;2.47;;
12129;SDS011;6128;59.340;18.040;2023-12-20T08:26:42;8.43;;;3.53;;
12129;SDS011;6128;59.340;18.040;2023-12-20T08:29:12;4.90;;;2.77;;
12129;SDS011;6128;59.340;18.040;2023-12-20T08:31:39;10.60;;;2.73;;
12129;SDS011;6128;59.340;18.040;2023-12-20T08:34:06;6.37;;;2.70;;
12129;SDS011;6128;59.340;18.040;2023-12-20T08:36:33;5.07;;;2.33;;
12129;SDS011;6128;59.340;18.040;2023-12-20T08:39:00;6.37;;;2.80;;
12129;SDS011;6128;59.340;18.040;2023-12-20T08:41:30;6.07;;;2.73;;
12129;SDS011;6128;59.340;18.040;2023-12-20T08:43:57;7.67;;;2.83;;
12129;SDS011;6128;59.340;18.040;2023-12-20T08:46:24;5.90;;;3.07;;
12129;SDS011;6128;59.340;18.040;2023-12-20T08:48:51;6.70;;;3.17;;
12129;SDS011;6128;59.340;18.040;2023-12-20T08:51:18;10.87;;;3.93;;
12129;SDS011;6128;59.340;18.040;2023-12-20T08:53:46;8.37;;;3.43;;
12129;SDS011;6128;59.340;18.040;2023-12-20T08:56:13;4.70;;;2.80;;
12129;SDS011;6128;59.340;18.040;2023-12-20T08:58:43;11.00;;;3.20;;
12129;SDS011;6128;59.340;18.040;2023-12-20T09:01:10;8.70;;;3.50;;
12129;SDS011;6128;59.340;18.040;2023-12-20T09:03:37;7.83;;;3.20;;
12129;SDS011;6128;59.340;18.040;2023-12-20T09:06:05;5.90;;;2.73;;
12129;SDS011;6128;59.340;18.040;2023-12-20T09:08:32;7.60;;;2.77;;
12129;SDS011;6128;59.340;18.040;2023-12-20T09:10:59;7.10;;;2.77;;
12129;SDS011;6128;59.340;18.040;2023-12-20T09:13:26;8.00;;;3.30;;
12129;SDS011;6128;59.340;18.040;2023-12-20T09:15:55;8.13;;;2.27;;
12129;SDS011;6128;59.340;18.040;2023-12-20T09:18:22;4.80;;;2.33;;
12129;SDS011;6128;59.340;18.040;2023-12-20T09:20:49;5.03;;;2.30;;
12129;SDS011;6128;59.340;18.040;2023-12-20T09:23:16;6.43;;;2.40;;
12129;SDS011;6128;59.340;18.040;2023-12-20T09:25:43;6.00;;;2.80;;
12129;SDS011;6128;59.340;18.040;2023-12-20T09:28:10;6.60;;;2.23;;
12129;SDS011;6128;59.340;18.040;2023-12-20T09:30:38;8.13;;;3.00;;
12129;SDS011;6128;59.340;18.040;2023-12-20T09:33:06;6.27;;;2.50;;
12129;SDS011;6128;59.340;18.040;2023-12-20T09:35:34;6.33;;;2.23;;
12129;SDS011;6128;59.340;18.040;2023-12-20T09:38:01;4.07;;;2.23;;
12129;SDS011;6128;59.340;18.040;2023-12-20T09:40:28;5.83;;;2.60;;
12129;SDS011;6128;59.340;18.040;2023-12-20T09:42:58;6.60;;;2.20;;
12129;SDS011;6128;59.340;18.040;2023-12-20T09:45:30;5.43;;;2.03;;
12129;SDS011;6128;59.340;18.040;2023-12-20T09:47:57;5.83;;;2.03;;
12129;SDS011;6128;59.340;18.040;2023-12-20T09:50:26;6.23;;;2.40;;
12129;SDS011;6128;59.340;18.040;2023-12-20T09:52:55;8.30;;;2.70;;
12129;SDS011;6128;59.340;18.040;2023-12-20T09:55:25;5.53;;;2.30;;
12129;SDS011;6128;59.340;18.040;2023-12-20T09:57:53;7.83;;;1.83;;
12129;SDS011;6128;59.340;18.040;2023-12-20T10:00:20;7.07;;;2.50;;
12129;SDS011;6128;59.340;18.040;2023-12-20T10:02:50;6.10;;;2.43;;
12129;SDS011;6128;59.340;18.040;2023-12-20T10:05:24;8.27;;;6.83;;
12129;SDS011;6128;59.340;18.040;2023-12-20T10:07:55;8.80;;;2.10;;
12129;SDS011;6128;59.340;18.040;2023-12-20T10:10:22;5.87;;;2.30;;
12129;SDS011;6128;59.340;18.040;2023-12-20T10:15:32;6.33;;;1.80;;
12129;SDS011;6128;59.340;18.040;2023-12-20T10:18:00;6.70;;;2.43;;
12129;SDS011;6128;59.340;18.040;2023-12-20T10:20:31;4.37;;;1.83;;
12129;SDS011;6128;59.340;18.040;2023-12-20T10:22:59;3.47;;;2.10;;
12129;SDS011;6128;59.340;18.040;2023-12-20T10:25:27;4.50;;;1.73;;
12129;SDS011;6128;59.340;18.040;2023-12-20T10:28:08;8.63;;;2.43;;
12129;SDS011;6128;59.340;18.040;2023-12-20T10:30:36;5.90;;;2.10;;
12129;SDS011;6128;59.340;18.040;2023-12-20T10:33:04;6.33;;;2.43;;
12129;SDS011;6128;59.340;18.040;2023-12-20T10:35:35;4.17;;;1.90;;
12129;SDS011;6128;59.340;18.040;2023-12-20T10:38:03;7.63;;;1.90;;
12129;SDS011;6128;59.340;18.040;2023-12-20T10:40:32;4.03;;;1.67;;
12129;SDS011;6128;59.340;18.040;2023-12-20T10:43:02;6.57;;;2.37;;
12129;SDS011;6128;59.340;18.040;2023-12-20T10:45:30;4.87;;;1.50;;
12129;SDS011;6128;59.340;18.040;2023-12-20T10:47:57;8.33;;;3.03;;
12129;SDS011;6128;59.340;18.040;2023-12-20T10:50:26;5.50;;;1.90;;
12129;SDS011;6128;59.340;18.040;2023-12-20T10:52:56;6.53;;;2.30;;
12129;SDS011;6128;59.340;18.040;2023-12-20T10:55:24;5.27;;;2.00;;
12129;SDS011;6128;59.340;18.040;2023-12-20T10:57:52;4.40;;;2.20;;
12129;SDS011;6128;59.340;18.040;2023-12-20T11:00:25;7.33;;;2.30;;
12129;SDS011;6128;59.340;18.040;2023-12-20T11:02:52;4.83;;;1.83;;
12129;SDS011;6128;59.340;18.040;2023-12-20T11:05:24;4.73;;;2.07;;
12129;SDS011;6128;59.340;18.040;2023-12-20T11:08:07;2.83;;;1.33;;
12129;SDS011;6128;59.340;18.040;2023-12-20T11:10:41;3.20;;;1.27;;
12129;SDS011;6128;59.340;18.040;2023-12-20T11:13:16;3.60;;;1.30;;
12129;SDS011;6128;59.340;18.040;2023-12-20T11:15:46;5.70;;;1.77;;
12129;SDS011;6128;59.340;18.040;2023-12-20T11:18:14;5.40;;;1.60;;
12129;SDS011;6128;59.340;18.040;2023-12-20T11:20:41;4.03;;;1.40;;
12129;SDS011;6128;59.340;18.040;2023-12-20T11:23:10;4.10;;;1.60;;
12129;SDS011;6128;59.340;18.040;2023-12-20T11:25:47;4.03;;;1.57;;
12129;SDS011;6128;59.340;18.040;2023-12-20T11:28:15;3.97;;;1.47;;
12129;SDS011;6128;59.340;18.040;2023-12-20T11:30:46;2.80;;;1.20;;
12129;SDS011;6128;59.340;18.040;2023-12-20T11:33:16;4.03;;;1.53;;
12129;SDS011;6128;59.340;18.040;2023-12-20T11:35:47;2.47;;;1.20;;
12129;SDS011;6128;59.340;18.040;2023-12-20T11:38:16;3.37;;;1.33;;
12129;SDS011;6128;59.340;18.040;2023-12-20T11:40:43;4.67;;;1.40;;
12129;SDS011;6128;59.340;18.040;2023-12-20T11:43:10;3.80;;;1.40;;
12129;SDS011;6128;59.340;18.040;2023-12-20T11:45:37;1.23;;;0.90;;
12129;SDS011;6128;59.340;18.040;2023-12-20T11:48:16;2.83;;;1.23;;
12129;SDS011;6128;59.340;18.040;2023-12-20T11:50:44;3.63;;;1.33;;
12129;SDS011;6128;59.340;18.040;2023-12-20T11:53:11;3.20;;;1.20;;
12129;SDS011;6128;59.340;18.040;2023-12-20T11:55:40;1.70;;;1.27;;
12129;SDS011;6128;59.340;18.040;2023-12-20T11:58:07;3.17;;;1.20;;
12129;SDS011;6128;59.340;18.040;2023-12-20T12:00:35;5.13;;;1.40;;
12129;SDS011;6128;59.340;18.040;2023-12-20T12:03:02;3.10;;;1.40;;
12129;SDS011;6128;59.340;18.040;2023-12-20T12:05:30;2.93;;;1.37;;
12129;SDS011;6128;59.340;18.040;2023-12-20T12:07:58;2.53;;;0.90;;
12129;SDS011;6128;59.340;18.040;2023-12-20T12:10:25;2.73;;;1.00;;
12129;SDS011;6128;59.340;18.040;2023-12-20T12:12:53;1.67;;;0.90;;
12129;SDS011;6128;59.340;18.040;2023-12-20T12:15:21;1.63;;;0.63;;
12129;SDS011;6128;59.340;18.040;2023-12-20T12:17:52;1.17;;;0.80;;
12129;SDS011;6128;59.340;18.040;2023-12-20T12:20:21;2.60;;;0.90;;
12129;SDS011;6128;59.340;18.040;2023-12-20T12:22:57;1.70;;;0.70;;
12129;SDS011;6128;59.340;18.040;2023-12-20T12:25:24;1.30;;;0.80;;
12129;SDS011;6128;59.340;18.040;2023-12-20T12:27:53;1.10;;;0.53;;
12129;SDS011;6128;59.340;18.040;2023-12-20T12:30:21;1.53;;;0.90;;
12129;SDS011;6128;59.340;18.040;2023-12-20T12:32:48;1.73;;;0.80;;
12129;SDS011;6128;59.340;18.040;2023-12-20T12:35:17;0.60;;;0.50;;
12129;SDS011;6128;59.340;18.040;2023-12-20T12:37:44;0.57;;;0.40;;
12129;SDS011;6128;59.340;18.040;2023-12-20T12:40:12;0.93;;;0.70;;
12129;SDS011;6128;59.340;18.040;2023-12-20T12:42:41;2.93;;;0.60;;
12129;SDS011;6128;59.340;18.040;2023-12-20T12:45:13;1.10;;;0.70;;
12129;SDS011;6128;59.340;18.040;2023-12-20T12:47:40;1.57;;;0.70;;
12129;SDS011;6128;59.340;18.040;2023-12-20T12:50:08;1.10;;;0.80;;
12129;SDS011;6128;59.340;18.040;2023-12-20T12:52:35;1.00;;;0.50;;
12129;SDS011;6128;59.340;18.040;2023-12-20T12:55:02;1.00;;;0.67;;
12129;SDS011;6128;59.340;18.040;2023-12-20T12:57:30;2.33;;;0.70;;
12129;SDS011;6128;59.340;18.040;2023-12-20T12:59:58;1.43;;;0.60;;
12129;SDS011;6128;59.340;18.040;2023-12-20T13:02:28;0.70;;;0.50;;
12129;SDS011;6128;59.340;18.040;2023-12-20T13:04:56;0.60;;;0.60;;
12129;SDS011;6128;59.340;18.040;2023-12-20T13:07:23;1.30;;;0.50;;
12129;SDS011;6128;59.340;18.040;2023-12-20T13:09:50;0.50;;;0.40;;
12129;SDS011;6128;59.340;18.040;2023-12-20T13:12:17;1.53;;;0.80;;
12129;SDS011;6128;59.340;18.040;2023-12-20T13:14:44;1.00;;;0.90;;
12129;SDS011;6128;59.340;18.040;2023-12-20T13:17:11;1.23;;;0.90;;
12129;SDS011;6128;59.340;18.040;2023-12-20T13:19:39;1.50;;;0.80;;
12129;SDS011;6128;59.340;18.040;2023-12-20T13:22:06;0.90;;;0.63;;
12129;SDS011;6128;59.340;18.040;2023-12-20T13:24:33;1.60;;;0.83;;
12129;SDS011;6128;59.340;18.040;2023-12-20T13:27:01;1.70;;;0.70;;
12129;SDS011;6128;59.340;18.040;2023-12-20T13:29:28;1.70;;;0.83;;
12129;SDS011;6128;59.340;18.040;2023-12-20T13:31:55;1.87;;;0.67;;
12129;SDS011;6128;59.340;18.040;2023-12-20T13:34:22;2.27;;;0.80;;
12129;SDS011;6128;59.340;18.040;2023-12-20T13:36:51;1.13;;;0.80;;
12129;SDS011;6128;59.340;18.040;2023-12-20T13:39:18;1.47;;;0.90;;
12129;SDS011;6128;59.340;18.040;2023-12-20T13:41:46;1.70;;;0.97;;
12129;SDS011;6128;59.340;18.040;2023-12-20T13:44:15;1.97;;;0.70;;
12129;SDS011;6128;59.340;18.040;2023-12-20T13:46:42;1.30;;;1.00;;
12129;SDS011;6128;59.340;18.040;2023-12-20T13:49:10;4.00;;;1.20;;
12129;SDS011;6128;59.340;18.040;2023-12-20T13:51:38;2.07;;;1.10;;
12129;SDS011;6128;59.340;18.040;2023-12-20T13:54:07;1.77;;;0.90;;
12129;SDS011;6128;59.340;18.040;2023-12-20T13:56:36;4.50;;;1.20;;
12129;SDS011;6128;59.340;18.040;2023-12-20T13:59:03;2.37;;;1.30;;
12129;SDS011;6128;59.340;18.040;2023-12-20T14:01:30;3.03;;;1.00;;
12129;SDS011;6128;59.340;18.040;2023-12-20T14:03:57;2.00;;;1.00;;
12129;SDS011;6128;59.340;18.040;2023-12-20T14:06:26;2.77;;;1.40;;
12129;SDS011;6128;59.340;18.040;2023-12-20T14:08:54;3.23;;;1.20;;
12129;SDS011;6128;59.340;18.040;2023-12-20T14:11:23;1.23;;;1.10;;
12129;SDS011;6128;59.340;18.040;2023-12-20T14:13:50;1.67;;;0.97;;
12129;SDS011;6128;59.340;18.040;2023-12-20T14:16:17;1.80;;;1.43;;
12129;SDS011;6128;59.340;18.040;2023-12-20T14:18:44;1.77;;;1.10;;
12129;SDS011;6128;59.340;18.040;2023-12-20T14:21:13;4.17;;;1.30;;
12129;SDS011;6128;59.340;18.040;2023-12-20T14:23:40;3.07;;;1.40;;
12129;SDS011;6128;59.340;18.040;2023-12-20T14:26:07;2.43;;;1.13;;
12129;SDS011;6128;59.340;18.040;2023-12-20T14:28:40;1.93;;;1.23;;
12129;SDS011;6128;59.340;18.040;2023-12-20T14:31:07;4.47;;;1.63;;
12129;SDS011;6128;59.340;18.040;2023-12-20T14:33:35;4.30;;;1.23;;
12129;SDS011;6128;59.340;18.040;2023-12-20T14:36:04;1.60;;;1.17;;
12129;SDS011;6128;59.340;18.040;2023-12-20T14:38:32;4.13;;;1.60;;
12129;SDS011;6128;59.340;18.040;2023-12-20T14:40:59;2.73;;;1.20;;
12129;SDS011;6128;59.340;18.040;2023-12-20T14:43:28;2.23;;;1.20;;
12129;SDS011;6128;59.340;18.040;2023-12-20T14:45:57;1.97;;;1.77;;
12129;SDS011;6128;59.340;18.040;2023-12-20T14:48:24;5.10;;;1.70;;
12129;SDS011;6128;59.340;18.040;2023-12-20T14:50:52;5.83;;;1.70;;
12129;SDS011;6128;59.340;18.040;2023-12-20T14:53:19;2.63;;;1.40;;
12129;SDS011;6128;59.340;18.040;2023-12-20T14:55:46;2.27;;;1.30;;